sensor_id;sensor_type;location;lat;lon;timestamp;P1;durP1;ratioP1;P2;durP2;ratioP2
81656;SDS011;71067;51.482;-0.580;2023-11-19T00:00:33;27.13;;;4.43;;
81656;SDS011;71067;51.482;-0.580;2023-11-19T00:02:58;28.42;;;5.05;;
81656;SDS011;71067;51.482;-0.580;2023-11-19T00:05:23;29.33;;;4.72;;
81656;SDS011;71067;51.482;-0.580;2023-11-19T00:07:49;23.43;;;4.43;;
81656;SDS011;71067;51.482;-0.580;2023-11-19T00:10:15;22.30;;;4.32;;
81656;SDS011;71067;51.482;-0.580;2023-11-19T00:12:44;26.65;;;4.68;;
81656;SDS011;71067;51.482;-0.580;2023-11-19T00:15:11;30.67;;;4.20;;
81656;SDS011;71067;51.482;-0.580;2023-11-19T00:17:41;27.45;;;4.85;;
81656;SDS011;71067;51.482;-0.580;2023-11-19T00:20:09;29.50;;;5.05;;
81656;SDS011;71067;51.482;-0.580;2023-11-19T00:22:38;28.27;;;3.42;;
81656;SDS011;71067;51.482;-0.580;2023-11-19T00:25:04;18.90;;;3.80;;
81656;SDS011;71067;51.482;-0.580;2023-11-19T00:27:30;25.15;;;3.80;;
81656;SDS011;71067;51.482;-0.580;2023-11-19T00:29:56;23.58;;;4.47;;
81656;SDS011;71067;51.482;-0.580;2023-11-19T00:32:21;28.92;;;4.47;;
81656;SDS011;71067;51.482;-0.580;2023-11-19T00:34:47;28.88;;;4.68;;
81656;SDS011;71067;51.482;-0.580;2023-11-19T00:37:13;26.58;;;4.30;;
81656;SDS011;71067;51.482;-0.580;2023-11-19T00:39:41;21.90;;;4.28;;
81656;SDS011;71067;51.482;-0.580;2023-11-19T00:42:07;23.27;;;4.40;;
81656;SDS011;71067;51.482;-0.580;2023-11-19T00:44:32;22.15;;;3.72;;
81656;SDS011;71067;51.482;-0.580;2023-11-19T00:46:57;25.90;;;4.10;;
81656;SDS011;71067;51.482;-0.580;2023-11-19T00:49:24;24.33;;;4.43;;
81656;SDS011;71067;51.482;-0.580;2023-11-19T00:51:50;19.98;;;3.85;;
81656;SDS011;71067;51.482;-0.580;2023-11-19T00:54:15;24.70;;;4.28;;
81656;SDS011;71067;51.482;-0.580;2023-11-19T00:56:40;27.15;;;5.22;;
81656;SDS011;71067;51.482;-0.580;2023-11-19T00:59:06;27.55;;;4.15;;
81656;SDS011;71067;51.482;-0.580;2023-11-19T01:01:31;25.08;;;4.30;;
81656;SDS011;71067;51.482;-0.580;2023-11-19T01:03:56;25.43;;;4.23;;
81656;SDS011;71067;51.482;-0.580;2023-11-19T01:06:28;23.13;;;4.20;;
81656;SDS011;71067;51.482;-0.580;2023-11-19T01:08:54;26.83;;;3.80;;
81656;SDS011;71067;51.482;-0.580;2023-11-19T01:11:20;28.48;;;4.90;;
81656;SDS011;71067;51.482;-0.580;2023-11-19T01:13:46;25.10;;;3.80;;
81656;SDS011;71067;51.482;-0.580;2023-11-19T01:16:12;27.92;;;4.40;;
81656;SDS011;71067;51.482;-0.580;2023-11-19T01:18:38;24.77;;;4.63;;
81656;SDS011;71067;51.482;-0.580;2023-11-19T01:21:03;20.73;;;4.60;;
81656;SDS011;71067;51.482;-0.580;2023-11-19T01:23:29;25.30;;;4.00;;
81656;SDS011;71067;51.482;-0.580;2023-11-19T01:25:54;22.13;;;3.90;;
81656;SDS011;71067;51.482;-0.580;2023-11-19T01:28:20;34.53;;;5.68;;
81656;SDS011;71067;51.482;-0.580;2023-11-19T01:30:45;25.02;;;5.25;;
81656;SDS011;71067;51.482;-0.580;2023-11-19T01:33:10;22.87;;;3.73;;
81656;SDS011;71067;51.482;-0.580;2023-11-19T01:35:36;19.93;;;3.67;;
81656;SDS011;71067;51.482;-0.580;2023-11-19T01:38:01;27.97;;;3.93;;
81656;SDS011;71067;51.482;-0.580;2023-11-19T01:40:26;28.60;;;4.37;;
81656;SDS011;71067;51.482;-0.580;2023-11-19T01:42:52;25.95;;;4.78;;
81656;SDS011;71067;51.482;-0.580;2023-11-19T01:45:38;24.92;;;4.15;;
81656;SDS011;71067;51.482;-0.580;2023-11-19T01:48:04;22.63;;;4.80;;
81656;SDS011;71067;51.482;-0.580;2023-11-19T01:50:30;25.98;;;3.97;;
81656;SDS011;71067;51.482;-0.580;2023-11-19T01:52:57;19.50;;;3.60;;
81656;SDS011;71067;51.482;-0.580;2023-11-19T01:55:22;19.98;;;4.32;;
81656;SDS011;71067;51.482;-0.580;2023-11-19T01:57:49;30.83;;;4.20;;
81656;SDS011;71067;51.482;-0.580;2023-11-19T02:00:14;24.90;;;4.60;;
81656;SDS011;71067;51.482;-0.580;2023-11-19T02:02:41;26.05;;;4.10;;
81656;SDS011;71067;51.482;-0.580;2023-11-19T02:05:08;25.23;;;4.32;;
81656;SDS011;71067;51.482;-0.580;2023-11-19T02:07:35;33.53;;;6.22;;
81656;SDS011;71067;51.482;-0.580;2023-11-19T02:10:00;21.48;;;3.47;;
81656;SDS011;71067;51.482;-0.580;2023-11-19T02:12:26;30.88;;;4.10;;
81656;SDS011;71067;51.482;-0.580;2023-11-19T02:14:57;26.40;;;4.22;;
81656;SDS011;71067;51.482;-0.580;2023-11-19T02:17:30;27.75;;;3.65;;
81656;SDS011;71067;51.482;-0.580;2023-11-19T02:19:56;25.35;;;4.43;;
81656;SDS011;71067;51.482;-0.580;2023-11-19T02:22:23;21.15;;;4.03;;
81656;SDS011;71067;51.482;-0.580;2023-11-19T02:24:49;26.17;;;3.60;;
81656;SDS011;71067;51.482;-0.580;2023-11-19T02:27:22;21.73;;;3.78;;
81656;SDS011;71067;51.482;-0.580;2023-11-19T02:30:06;25.08;;;4.47;;
81656;SDS011;71067;51.482;-0.580;2023-11-19T02:32:33;21.55;;;3.70;;
81656;SDS011;71067;51.482;-0.580;2023-11-19T02:34:59;26.48;;;4.97;;
81656;SDS011;71067;51.482;-0.580;2023-11-19T02:37:24;31.92;;;4.28;;
81656;SDS011;71067;51.482;-0.580;2023-11-19T02:39:50;30.75;;;4.47;;
81656;SDS011;71067;51.482;-0.580;2023-11-19T02:42:15;25.45;;;3.65;;
81656;SDS011;71067;51.482;-0.580;2023-11-19T02:44:43;16.70;;;3.42;;
81656;SDS011;71067;51.482;-0.580;2023-11-19T02:47:10;25.48;;;4.20;;
81656;SDS011;71067;51.482;-0.580;2023-11-19T02:49:35;24.63;;;3.67;;
81656;SDS011;71067;51.482;-0.580;2023-11-19T02:52:02;23.95;;;4.35;;
81656;SDS011;71067;51.482;-0.580;2023-11-19T02:54:30;33.28;;;4.13;;
81656;SDS011;71067;51.482;-0.580;2023-11-19T02:56:59;19.27;;;3.50;;
81656;SDS011;71067;51.482;-0.580;2023-11-19T02:59:26;25.40;;;4.75;;
81656;SDS011;71067;51.482;-0.580;2023-11-19T03:01:52;25.13;;;3.70;;
81656;SDS011;71067;51.482;-0.580;2023-11-19T03:04:18;19.33;;;2.92;;
81656;SDS011;71067;51.482;-0.580;2023-11-19T03:06:45;27.55;;;3.72;;
81656;SDS011;71067;51.482;-0.580;2023-11-19T03:09:10;23.23;;;3.67;;
81656;SDS011;71067;51.482;-0.580;2023-11-19T03:11:36;21.35;;;3.97;;
81656;SDS011;71067;51.482;-0.580;2023-11-19T03:14:04;24.92;;;3.95;;
81656;SDS011;71067;51.482;-0.580;2023-11-19T03:16:29;28.50;;;4.25;;
81656;SDS011;71067;51.482;-0.580;2023-11-19T03:18:55;23.73;;;4.57;;
81656;SDS011;71067;51.482;-0.580;2023-11-19T03:21:27;23.17;;;3.83;;
81656;SDS011;71067;51.482;-0.580;2023-11-19T03:23:56;23.00;;;3.28;;
81656;SDS011;71067;51.482;-0.580;2023-11-19T03:26:21;25.35;;;4.35;;
81656;SDS011;71067;51.482;-0.580;2023-11-19T03:28:47;21.63;;;3.60;;
81656;SDS011;71067;51.482;-0.580;2023-11-19T03:31:12;20.55;;;3.38;;
81656;SDS011;71067;51.482;-0.580;2023-11-19T03:33:38;31.95;;;5.35;;
81656;SDS011;71067;51.482;-0.580;2023-11-19T03:36:03;21.88;;;3.53;;
81656;SDS011;71067;51.482;-0.580;2023-11-19T03:38:28;23.85;;;4.07;;
81656;SDS011;71067;51.482;-0.580;2023-11-19T03:40:54;25.45;;;4.15;;
81656;SDS011;71067;51.482;-0.580;2023-11-19T03:43:19;21.00;;;3.17;;
81656;SDS011;71067;51.482;-0.580;2023-11-19T03:45:44;28.40;;;4.33;;
81656;SDS011;71067;51.482;-0.580;2023-11-19T03:48:10;23.55;;;4.05;;
81656;SDS011;71067;51.482;-0.580;2023-11-19T03:50:35;23.25;;;4.18;;
81656;SDS011;71067;51.482;-0.580;2023-11-19T03:53:00;21.27;;;3.97;;
81656;SDS011;71067;51.482;-0.580;2023-11-19T03:55:27;34.50;;;4.85;;
81656;SDS011;71067;51.482;-0.580;2023-11-19T03:57:53;20.08;;;3.13;;
81656;SDS011;71067;51.482;-0.580;2023-11-19T04:00:19;26.00;;;4.53;;
81656;SDS011;71067;51.482;-0.580;2023-11-19T04:02:46;26.17;;;4.10;;
81656;SDS011;71067;51.482;-0.580;2023-11-19T04:05:12;26.63;;;3.80;;
81656;SDS011;71067;51.482;-0.580;2023-11-19T04:07:37;27.23;;;3.92;;
81656;SDS011;71067;51.482;-0.580;2023-11-19T04:10:03;26.67;;;4.30;;
81656;SDS011;71067;51.482;-0.580;2023-11-19T04:12:29;26.85;;;4.53;;
81656;SDS011;71067;51.482;-0.580;2023-11-19T04:14:54;28.35;;;3.83;;
81656;SDS011;71067;51.482;-0.580;2023-11-19T04:17:19;20.05;;;3.25;;
81656;SDS011;71067;51.482;-0.580;2023-11-19T04:19:45;22.30;;;3.80;;
81656;SDS011;71067;51.482;-0.580;2023-11-19T04:22:10;29.13;;;4.03;;
81656;SDS011;71067;51.482;-0.580;2023-11-19T04:24:35;23.02;;;3.65;;
81656;SDS011;71067;51.482;-0.580;2023-11-19T04:27:01;20.80;;;3.97;;
81656;SDS011;71067;51.482;-0.580;2023-11-19T04:29:26;21.02;;;3.83;;
81656;SDS011;71067;51.482;-0.580;2023-11-19T04:31:52;28.38;;;4.68;;
81656;SDS011;71067;51.482;-0.580;2023-11-19T04:34:17;27.45;;;4.60;;
81656;SDS011;71067;51.482;-0.580;2023-11-19T04:36:42;22.47;;;3.77;;
81656;SDS011;71067;51.482;-0.580;2023-11-19T04:39:08;20.73;;;3.28;;
81656;SDS011;71067;51.482;-0.580;2023-11-19T04:41:34;24.05;;;4.63;;
81656;SDS011;71067;51.482;-0.580;2023-11-19T04:44:00;26.00;;;4.15;;
81656;SDS011;71067;51.482;-0.580;2023-11-19T04:46:26;20.70;;;3.50;;
81656;SDS011;71067;51.482;-0.580;2023-11-19T04:48:51;24.63;;;3.43;;
81656;SDS011;71067;51.482;-0.580;2023-11-19T04:51:16;24.30;;;3.47;;
81656;SDS011;71067;51.482;-0.580;2023-11-19T04:53:42;23.75;;;3.70;;
81656;SDS011;71067;51.482;-0.580;2023-11-19T04:56:11;25.42;;;3.85;;
81656;SDS011;71067;51.482;-0.580;2023-11-19T04:58:38;25.73;;;3.60;;
81656;SDS011;71067;51.482;-0.580;2023-11-19T05:01:03;25.48;;;4.95;;
81656;SDS011;71067;51.482;-0.580;2023-11-19T05:03:30;22.98;;;3.40;;
81656;SDS011;71067;51.482;-0.580;2023-11-19T05:05:56;25.35;;;4.03;;
81656;SDS011;71067;51.482;-0.580;2023-11-19T05:08:22;22.30;;;3.50;;
81656;SDS011;71067;51.482;-0.580;2023-11-19T05:10:47;20.07;;;3.97;;
81656;SDS011;71067;51.482;-0.580;2023-11-19T05:13:12;22.20;;;3.43;;
81656;SDS011;71067;51.482;-0.580;2023-11-19T05:15:37;25.67;;;4.03;;
81656;SDS011;71067;51.482;-0.580;2023-11-19T05:18:03;25.88;;;3.60;;
81656;SDS011;71067;51.482;-0.580;2023-11-19T05:20:29;22.48;;;3.30;;
81656;SDS011;71067;51.482;-0.580;2023-11-19T05:22:55;31.37;;;4.83;;
81656;SDS011;71067;51.482;-0.580;2023-11-19T05:25:20;22.70;;;4.38;;
81656;SDS011;71067;51.482;-0.580;2023-11-19T05:27:45;18.20;;;3.90;;
81656;SDS011;71067;51.482;-0.580;2023-11-19T05:30:11;24.70;;;4.10;;
81656;SDS011;71067;51.482;-0.580;2023-11-19T05:32:36;25.42;;;3.83;;
81656;SDS011;71067;51.482;-0.580;2023-11-19T05:35:02;21.13;;;3.40;;
81656;SDS011;71067;51.482;-0.580;2023-11-19T05:37:27;23.80;;;3.58;;
81656;SDS011;71067;51.482;-0.580;2023-11-19T05:39:53;24.52;;;3.85;;
81656;SDS011;71067;51.482;-0.580;2023-11-19T05:42:18;31.87;;;5.27;;
81656;SDS011;71067;51.482;-0.580;2023-11-19T05:44:43;23.15;;;3.60;;
81656;SDS011;71067;51.482;-0.580;2023-11-19T05:47:09;22.00;;;3.80;;
81656;SDS011;71067;51.482;-0.580;2023-11-19T05:49:34;22.83;;;3.40;;
81656;SDS011;71067;51.482;-0.580;2023-11-19T05:52:00;24.20;;;3.95;;
81656;SDS011;71067;51.482;-0.580;2023-11-19T05:54:26;25.52;;;3.78;;
81656;SDS011;71067;51.482;-0.580;2023-11-19T05:56:52;29.88;;;3.47;;
81656;SDS011;71067;51.482;-0.580;2023-11-19T05:59:19;24.85;;;3.70;;
81656;SDS011;71067;51.482;-0.580;2023-11-19T06:01:44;18.35;;;2.97;;
81656;SDS011;71067;51.482;-0.580;2023-11-19T06:04:10;20.00;;;3.25;;
81656;SDS011;71067;51.482;-0.580;2023-11-19T06:06:35;20.30;;;4.13;;
81656;SDS011;71067;51.482;-0.580;2023-11-19T06:09:01;26.90;;;3.72;;
81656;SDS011;71067;51.482;-0.580;2023-11-19T06:11:27;23.50;;;3.53;;
81656;SDS011;71067;51.482;-0.580;2023-11-19T06:13:53;23.55;;;3.97;;
81656;SDS011;71067;51.482;-0.580;2023-11-19T06:16:18;24.88;;;3.97;;
81656;SDS011;71067;51.482;-0.580;2023-11-19T06:18:44;23.15;;;2.97;;
81656;SDS011;71067;51.482;-0.580;2023-11-19T06:21:09;23.63;;;4.30;;
81656;SDS011;71067;51.482;-0.580;2023-11-19T06:23:35;19.92;;;2.95;;
81656;SDS011;71067;51.482;-0.580;2023-11-19T06:26:00;19.10;;;3.20;;
81656;SDS011;71067;51.482;-0.580;2023-11-19T06:28:26;24.95;;;3.50;;
81656;SDS011;71067;51.482;-0.580;2023-11-19T06:30:51;18.58;;;3.13;;
81656;SDS011;71067;51.482;-0.580;2023-11-19T06:33:17;17.63;;;2.75;;
81656;SDS011;71067;51.482;-0.580;2023-11-19T06:35:42;22.35;;;3.67;;
81656;SDS011;71067;51.482;-0.580;2023-11-19T06:38:08;28.40;;;4.25;;
81656;SDS011;71067;51.482;-0.580;2023-11-19T06:40:33;18.67;;;2.50;;
81656;SDS011;71067;51.482;-0.580;2023-11-19T06:43:03;20.33;;;3.40;;
81656;SDS011;71067;51.482;-0.580;2023-11-19T06:45:29;24.10;;;3.58;;
81656;SDS011;71067;51.482;-0.580;2023-11-19T06:47:54;20.02;;;3.20;;
81656;SDS011;71067;51.482;-0.580;2023-11-19T06:50:20;16.27;;;2.70;;
81656;SDS011;71067;51.482;-0.580;2023-11-19T06:52:46;20.60;;;3.67;;
81656;SDS011;71067;51.482;-0.580;2023-11-19T06:55:11;16.63;;;3.03;;
81656;SDS011;71067;51.482;-0.580;2023-11-19T06:57:36;15.52;;;3.22;;
81656;SDS011;71067;51.482;-0.580;2023-11-19T07:00:02;17.20;;;3.60;;
81656;SDS011;71067;51.482;-0.580;2023-11-19T07:02:30;20.23;;;3.45;;
81656;SDS011;71067;51.482;-0.580;2023-11-19T07:04:55;18.60;;;3.13;;
81656;SDS011;71067;51.482;-0.580;2023-11-19T07:07:21;18.67;;;2.85;;
81656;SDS011;71067;51.482;-0.580;2023-11-19T07:09:46;18.95;;;2.53;;
81656;SDS011;71067;51.482;-0.580;2023-11-19T07:12:11;16.23;;;2.90;;
81656;SDS011;71067;51.482;-0.580;2023-11-19T07:14:38;15.48;;;2.63;;
81656;SDS011;71067;51.482;-0.580;2023-11-19T07:17:03;16.40;;;3.05;;
81656;SDS011;71067;51.482;-0.580;2023-11-19T07:19:28;16.67;;;2.83;;
81656;SDS011;71067;51.482;-0.580;2023-11-19T07:21:54;21.13;;;2.85;;
81656;SDS011;71067;51.482;-0.580;2023-11-19T07:24:20;11.80;;;2.43;;
81656;SDS011;71067;51.482;-0.580;2023-11-19T07:26:47;21.25;;;3.67;;
81656;SDS011;71067;51.482;-0.580;2023-11-19T07:29:13;13.43;;;2.55;;
81656;SDS011;71067;51.482;-0.580;2023-11-19T07:31:40;15.68;;;2.38;;
81656;SDS011;71067;51.482;-0.580;2023-11-19T07:34:05;17.10;;;2.83;;
81656;SDS011;71067;51.482;-0.580;2023-11-19T07:36:31;14.25;;;2.38;;
81656;SDS011;71067;51.482;-0.580;2023-11-19T07:38:57;17.83;;;2.78;;
81656;SDS011;71067;51.482;-0.580;2023-11-19T07:41:23;17.27;;;2.60;;
81656;SDS011;71067;51.482;-0.580;2023-11-19T07:43:50;19.35;;;2.90;;
81656;SDS011;71067;51.482;-0.580;2023-11-19T07:46:16;16.17;;;2.63;;
81656;SDS011;71067;51.482;-0.580;2023-11-19T07:48:44;17.95;;;3.85;;
81656;SDS011;71067;51.482;-0.580;2023-11-19T07:51:12;14.70;;;2.55;;
81656;SDS011;71067;51.482;-0.580;2023-11-19T07:53:38;14.23;;;2.75;;
81656;SDS011;71067;51.482;-0.580;2023-11-19T07:56:03;22.35;;;2.85;;
81656;SDS011;71067;51.482;-0.580;2023-11-19T07:58:29;20.88;;;3.55;;
81656;SDS011;71067;51.482;-0.580;2023-11-19T08:00:54;15.20;;;3.40;;
81656;SDS011;71067;51.482;-0.580;2023-11-19T08:03:20;16.67;;;2.78;;
81656;SDS011;71067;51.482;-0.580;2023-11-19T08:05:47;14.00;;;3.15;;
81656;SDS011;71067;51.482;-0.580;2023-11-19T08:08:12;17.35;;;2.88;;
81656;SDS011;71067;51.482;-0.580;2023-11-19T08:10:38;15.85;;;2.58;;
81656;SDS011;71067;51.482;-0.580;2023-11-19T08:13:04;15.27;;;2.15;;
81656;SDS011;71067;51.482;-0.580;2023-11-19T08:15:30;14.85;;;2.88;;
81656;SDS011;71067;51.482;-0.580;2023-11-19T08:17:56;13.40;;;2.53;;
81656;SDS011;71067;51.482;-0.580;2023-11-19T08:20:21;12.47;;;2.20;;
81656;SDS011;71067;51.482;-0.580;2023-11-19T08:22:47;15.13;;;2.53;;
81656;SDS011;71067;51.482;-0.580;2023-11-19T08:25:12;11.07;;;1.98;;
81656;SDS011;71067;51.482;-0.580;2023-11-19T08:27:38;15.15;;;2.20;;
81656;SDS011;71067;51.482;-0.580;2023-11-19T08:30:04;17.23;;;2.72;;
81656;SDS011;71067;51.482;-0.580;2023-11-19T08:32:31;15.95;;;3.08;;
81656;SDS011;71067;51.482;-0.580;2023-11-19T08:34:56;15.07;;;2.65;;
81656;SDS011;71067;51.482;-0.580;2023-11-19T08:37:22;14.32;;;2.47;;
81656;SDS011;71067;51.482;-0.580;2023-11-19T08:39:47;19.63;;;3.05;;
81656;SDS011;71067;51.482;-0.580;2023-11-19T08:42:16;13.00;;;2.55;;
81656;SDS011;71067;51.482;-0.580;2023-11-19T08:44:42;9.55;;;2.45;;
81656;SDS011;71067;51.482;-0.580;2023-11-19T08:47:14;17.48;;;3.03;;
81656;SDS011;71067;51.482;-0.580;2023-11-19T08:49:41;13.18;;;2.45;;
81656;SDS011;71067;51.482;-0.580;2023-11-19T08:52:06;17.97;;;2.77;;
81656;SDS011;71067;51.482;-0.580;2023-11-19T08:54:33;9.82;;;2.30;;
81656;SDS011;71067;51.482;-0.580;2023-11-19T08:56:58;11.77;;;2.03;;
81656;SDS011;71067;51.482;-0.580;2023-11-19T08:59:24;16.92;;;2.50;;
81656;SDS011;71067;51.482;-0.580;2023-11-19T09:01:50;15.00;;;3.05;;
81656;SDS011;71067;51.482;-0.580;2023-11-19T09:04:15;10.98;;;2.03;;
81656;SDS011;71067;51.482;-0.580;2023-11-19T09:06:41;12.73;;;2.28;;
81656;SDS011;71067;51.482;-0.580;2023-11-19T09:09:07;15.93;;;2.53;;
81656;SDS011;71067;51.482;-0.580;2023-11-19T09:11:33;17.35;;;2.25;;
81656;SDS011;71067;51.482;-0.580;2023-11-19T09:13:58;15.32;;;2.63;;
81656;SDS011;71067;51.482;-0.580;2023-11-19T09:16:23;11.95;;;2.55;;
81656;SDS011;71067;51.482;-0.580;2023-11-19T09:18:49;13.13;;;2.38;;
81656;SDS011;71067;51.482;-0.580;2023-11-19T09:21:14;12.05;;;2.17;;
81656;SDS011;71067;51.482;-0.580;2023-11-19T09:23:39;9.00;;;2.10;;
81656;SDS011;71067;51.482;-0.580;2023-11-19T09:26:05;10.13;;;1.67;;
81656;SDS011;71067;51.482;-0.580;2023-11-19T09:28:31;17.35;;;2.85;;
81656;SDS011;71067;51.482;-0.580;2023-11-19T09:30:56;11.60;;;2.10;;
81656;SDS011;71067;51.482;-0.580;2023-11-19T09:33:22;13.75;;;2.58;;
81656;SDS011;71067;51.482;-0.580;2023-11-19T09:35:47;12.67;;;2.37;;
81656;SDS011;71067;51.482;-0.580;2023-11-19T09:38:14;13.60;;;2.22;;
81656;SDS011;71067;51.482;-0.580;2023-11-19T09:40:40;15.57;;;2.50;;
81656;SDS011;71067;51.482;-0.580;2023-11-19T09:43:05;14.13;;;2.20;;
81656;SDS011;71067;51.482;-0.580;2023-11-19T09:45:32;11.38;;;2.05;;
81656;SDS011;71067;51.482;-0.580;2023-11-19T09:48:26;11.88;;;2.53;;
81656;SDS011;71067;51.482;-0.580;2023-11-19T09:50:52;13.63;;;2.55;;
81656;SDS011;71067;51.482;-0.580;2023-11-19T09:53:18;15.27;;;2.78;;
81656;SDS011;71067;51.482;-0.580;2023-11-19T09:55:45;16.25;;;3.03;;
81656;SDS011;71067;51.482;-0.580;2023-11-19T09:58:11;16.42;;;3.33;;
81656;SDS011;71067;51.482;-0.580;2023-11-19T10:00:37;18.33;;;3.08;;
81656;SDS011;71067;51.482;-0.580;2023-11-19T10:03:02;16.77;;;3.08;;
81656;SDS011;71067;51.482;-0.580;2023-11-19T10:05:30;21.70;;;3.92;;
81656;SDS011;71067;51.482;-0.580;2023-11-19T10:07:55;16.15;;;2.85;;
81656;SDS011;71067;51.482;-0.580;2023-11-19T10:10:21;17.63;;;2.97;;
81656;SDS011;71067;51.482;-0.580;2023-11-19T10:12:46;20.25;;;3.17;;
81656;SDS011;71067;51.482;-0.580;2023-11-19T10:15:14;15.68;;;2.70;;
81656;SDS011;71067;51.482;-0.580;2023-11-19T10:17:45;19.20;;;2.55;;
81656;SDS011;71067;51.482;-0.580;2023-11-19T10:20:10;19.70;;;2.97;;
81656;SDS011;71067;51.482;-0.580;2023-11-19T10:22:39;18.73;;;2.75;;
81656;SDS011;71067;51.482;-0.580;2023-11-19T10:27:50;13.63;;;3.00;;
81656;SDS011;71067;51.482;-0.580;2023-11-19T10:30:26;15.68;;;2.83;;
81656;SDS011;71067;51.482;-0.580;2023-11-19T10:33:06;14.73;;;2.85;;
81656;SDS011;71067;51.482;-0.580;2023-11-19T10:35:34;12.40;;;1.90;;
81656;SDS011;71067;51.482;-0.580;2023-11-19T10:38:17;14.43;;;2.95;;
81656;SDS011;71067;51.482;-0.580;2023-11-19T10:40:42;16.08;;;2.40;;
81656;SDS011;71067;51.482;-0.580;2023-11-19T10:43:08;12.98;;;2.42;;
81656;SDS011;71067;51.482;-0.580;2023-11-19T10:45:37;13.43;;;2.47;;
81656;SDS011;71067;51.482;-0.580;2023-11-19T10:48:04;10.88;;;2.08;;
81656;SDS011;71067;51.482;-0.580;2023-11-19T10:50:33;10.02;;;2.15;;
81656;SDS011;71067;51.482;-0.580;2023-11-19T10:53:01;11.35;;;1.70;;
81656;SDS011;71067;51.482;-0.580;2023-11-19T10:55:28;9.23;;;1.85;;
81656;SDS011;71067;51.482;-0.580;2023-11-19T10:58:05;12.57;;;1.92;;
81656;SDS011;71067;51.482;-0.580;2023-11-19T11:00:43;11.05;;;2.08;;
81656;SDS011;71067;51.482;-0.580;2023-11-19T11:03:18;9.23;;;1.65;;
81656;SDS011;71067;51.482;-0.580;2023-11-19T11:05:48;10.07;;;1.73;;
81656;SDS011;71067;51.482;-0.580;2023-11-19T11:08:15;11.02;;;1.83;;
81656;SDS011;71067;51.482;-0.580;2023-11-19T11:10:45;10.93;;;1.83;;
81656;SDS011;71067;51.482;-0.580;2023-11-19T11:13:13;8.02;;;1.98;;
81656;SDS011;71067;51.482;-0.580;2023-11-19T11:15:39;12.02;;;2.03;;
81656;SDS011;71067;51.482;-0.580;2023-11-19T11:18:07;12.45;;;2.30;;
81656;SDS011;71067;51.482;-0.580;2023-11-19T11:20:33;12.30;;;2.35;;
81656;SDS011;71067;51.482;-0.580;2023-11-19T11:25:37;14.48;;;2.33;;
81656;SDS011;71067;51.482;-0.580;2023-11-19T11:31:05;11.98;;;2.60;;
81656;SDS011;71067;51.482;-0.580;2023-11-19T11:33:41;9.15;;;2.08;;
81656;SDS011;71067;51.482;-0.580;2023-11-19T11:36:20;12.77;;;1.92;;
81656;SDS011;71067;51.482;-0.580;2023-11-19T11:38:48;13.75;;;2.38;;
81656;SDS011;71067;51.482;-0.580;2023-11-19T11:41:17;12.73;;;2.33;;
81656;SDS011;71067;51.482;-0.580;2023-11-19T11:49:01;11.60;;;2.47;;
81656;SDS011;71067;51.482;-0.580;2023-11-19T11:54:11;17.90;;;2.80;;
81656;SDS011;71067;51.482;-0.580;2023-11-19T11:57:02;8.88;;;1.67;;
81656;SDS011;71067;51.482;-0.580;2023-11-19T11:59:37;13.95;;;2.13;;
81656;SDS011;71067;51.482;-0.580;2023-11-19T12:02:17;12.68;;;2.55;;
81656;SDS011;71067;51.482;-0.580;2023-11-19T12:04:48;12.18;;;2.55;;
81656;SDS011;71067;51.482;-0.580;2023-11-19T12:07:18;12.02;;;2.55;;
81656;SDS011;71067;51.482;-0.580;2023-11-19T12:09:47;14.23;;;2.85;;
81656;SDS011;71067;51.482;-0.580;2023-11-19T12:15:21;10.52;;;1.67;;
81656;SDS011;71067;51.482;-0.580;2023-11-19T12:20:05;10.38;;;2.38;;
81656;SDS011;71067;51.482;-0.580;2023-11-19T12:22:34;11.27;;;2.05;;
81656;SDS011;71067;51.482;-0.580;2023-11-19T12:25:02;9.02;;;2.00;;
81656;SDS011;71067;51.482;-0.580;2023-11-19T12:27:27;11.70;;;1.70;;
81656;SDS011;71067;51.482;-0.580;2023-11-19T12:29:53;10.40;;;2.13;;
81656;SDS011;71067;51.482;-0.580;2023-11-19T12:32:19;8.48;;;1.95;;
81656;SDS011;71067;51.482;-0.580;2023-11-19T12:34:45;8.65;;;1.80;;
81656;SDS011;71067;51.482;-0.580;2023-11-19T12:37:10;8.57;;;1.92;;
81656;SDS011;71067;51.482;-0.580;2023-11-19T12:39:36;9.63;;;1.70;;
81656;SDS011;71067;51.482;-0.580;2023-11-19T12:42:01;10.43;;;2.05;;
81656;SDS011;71067;51.482;-0.580;2023-11-19T12:44:26;9.45;;;1.40;;
81656;SDS011;71067;51.482;-0.580;2023-11-19T12:47:02;7.25;;;1.40;;
81656;SDS011;71067;51.482;-0.580;2023-11-19T12:49:27;6.75;;;1.48;;
81656;SDS011;71067;51.482;-0.580;2023-11-19T12:51:53;7.72;;;1.20;;
81656;SDS011;71067;51.482;-0.580;2023-11-19T12:54:18;6.63;;;1.13;;
81656;SDS011;71067;51.482;-0.580;2023-11-19T12:56:53;8.43;;;1.37;;
81656;SDS011;71067;51.482;-0.580;2023-11-19T12:59:18;7.53;;;1.27;;
81656;SDS011;71067;51.482;-0.580;2023-11-19T13:01:53;7.13;;;1.20;;
81656;SDS011;71067;51.482;-0.580;2023-11-19T13:04:20;8.88;;;1.33;;
81656;SDS011;71067;51.482;-0.580;2023-11-19T13:06:45;8.70;;;1.27;;
81656;SDS011;71067;51.482;-0.580;2023-11-19T13:09:21;7.60;;;1.17;;
81656;SDS011;71067;51.482;-0.580;2023-11-19T13:11:47;8.75;;;1.25;;
81656;SDS011;71067;51.482;-0.580;2023-11-19T13:14:12;5.57;;;1.38;;
81656;SDS011;71067;51.482;-0.580;2023-11-19T13:16:38;7.72;;;1.27;;
81656;SDS011;71067;51.482;-0.580;2023-11-19T13:19:04;8.15;;;1.60;;
81656;SDS011;71067;51.482;-0.580;2023-11-19T13:21:30;6.65;;;1.38;;
81656;SDS011;71067;51.482;-0.580;2023-11-19T13:23:55;6.75;;;1.20;;
81656;SDS011;71067;51.482;-0.580;2023-11-19T13:26:21;9.13;;;1.40;;
81656;SDS011;71067;51.482;-0.580;2023-11-19T13:28:46;5.85;;;1.25;;
81656;SDS011;71067;51.482;-0.580;2023-11-19T13:31:12;5.27;;;1.10;;
81656;SDS011;71067;51.482;-0.580;2023-11-19T13:33:37;7.10;;;1.40;;
81656;SDS011;71067;51.482;-0.580;2023-11-19T13:36:03;6.53;;;1.45;;
81656;SDS011;71067;51.482;-0.580;2023-11-19T13:38:31;7.05;;;1.38;;
81656;SDS011;71067;51.482;-0.580;2023-11-19T13:40:57;5.15;;;1.08;;
81656;SDS011;71067;51.482;-0.580;2023-11-19T13:43:23;5.68;;;0.90;;
81656;SDS011;71067;51.482;-0.580;2023-11-19T13:45:49;9.00;;;1.58;;
81656;SDS011;71067;51.482;-0.580;2023-11-19T13:48:14;4.40;;;1.05;;
81656;SDS011;71067;51.482;-0.580;2023-11-19T13:50:39;6.07;;;1.05;;
81656;SDS011;71067;51.482;-0.580;2023-11-19T13:53:05;6.47;;;1.17;;
81656;SDS011;71067;51.482;-0.580;2023-11-19T13:55:30;4.40;;;1.05;;
81656;SDS011;71067;51.482;-0.580;2023-11-19T13:57:55;4.07;;;0.90;;
81656;SDS011;71067;51.482;-0.580;2023-11-19T14:00:21;7.05;;;1.35;;
81656;SDS011;71067;51.482;-0.580;2023-11-19T14:02:48;6.45;;;1.00;;
81656;SDS011;71067;51.482;-0.580;2023-11-19T14:05:14;3.13;;;0.88;;
81656;SDS011;71067;51.482;-0.580;2023-11-19T14:07:42;6.28;;;1.48;;
81656;SDS011;71067;51.482;-0.580;2023-11-19T14:10:09;4.07;;;0.77;;
81656;SDS011;71067;51.482;-0.580;2023-11-19T14:12:36;4.55;;;0.95;;
81656;SDS011;71067;51.482;-0.580;2023-11-19T14:15:02;4.00;;;1.08;;
81656;SDS011;71067;51.482;-0.580;2023-11-19T14:17:31;3.90;;;1.00;;
81656;SDS011;71067;51.482;-0.580;2023-11-19T14:19:57;5.90;;;1.17;;
81656;SDS011;71067;51.482;-0.580;2023-11-19T14:22:22;3.80;;;0.70;;
81656;SDS011;71067;51.482;-0.580;2023-11-19T14:24:48;6.50;;;0.93;;
81656;SDS011;71067;51.482;-0.580;2023-11-19T14:27:13;3.50;;;0.73;;
81656;SDS011;71067;51.482;-0.580;2023-11-19T14:29:38;4.28;;;0.70;;
81656;SDS011;71067;51.482;-0.580;2023-11-19T14:32:05;5.57;;;0.75;;
81656;SDS011;71067;51.482;-0.580;2023-11-19T14:34:31;2.97;;;0.75;;
81656;SDS011;71067;51.482;-0.580;2023-11-19T14:36:57;3.50;;;0.80;;
81656;SDS011;71067;51.482;-0.580;2023-11-19T14:39:23;4.63;;;1.05;;
81656;SDS011;71067;51.482;-0.580;2023-11-19T14:41:48;2.78;;;0.73;;